sensor_id;sensor_type;location;lat;lon;timestamp;P1;durP1;ratioP1;P2;durP2;ratioP2
6983;SDS011;3532;51.118;7.210;2024-03-08T00:01:43;21.27;;;17.33;;
6983;SDS011;3532;51.118;7.210;2024-03-08T00:04:10;26.58;;;17.48;;
6983;SDS011;3532;51.118;7.210;2024-03-08T00:06:35;21.60;;;17.53;;
6983;SDS011;3532;51.118;7.210;2024-03-08T00:09:00;18.90;;;16.07;;
6983;SDS011;3532;51.118;7.210;2024-03-08T00:11:26;23.77;;;17.63;;
6983;SDS011;3532;51.118;7.210;2024-03-08T00:13:54;22.73;;;17.67;;
6983;SDS011;3532;51.118;7.210;2024-03-08T00:16:19;22.97;;;17.33;;
6983;SDS011;3532;51.118;7.210;2024-03-08T00:18:45;22.10;;;17.07;;
6983;SDS011;3532;51.118;7.210;2024-03-08T00:21:10;21.80;;;17.57;;
6983;SDS011;3532;51.118;7.210;2024-03-08T00:23:37;20.57;;;17.20;;
6983;SDS011;3532;51.118;7.210;2024-03-08T00:26:02;23.20;;;17.37;;
6983;SDS011;3532;51.118;7.210;2024-03-08T00:28:29;23.47;;;17.27;;
6983;SDS011;3532;51.118;7.210;2024-03-08T00:30:55;21.43;;;17.57;;
6983;SDS011;3532;51.118;7.210;2024-03-08T00:33:21;22.23;;;18.10;;
6983;SDS011;3532;51.118;7.210;2024-03-08T00:35:47;23.87;;;18.83;;
6983;SDS011;3532;51.118;7.210;2024-03-08T00:38:13;23.20;;;18.77;;
6983;SDS011;3532;51.118;7.210;2024-03-08T00:40:38;23.20;;;17.93;;
6983;SDS011;3532;51.118;7.210;2024-03-08T00:43:05;21.08;;;17.90;;
6983;SDS011;3532;51.118;7.210;2024-03-08T00:45:30;22.67;;;17.83;;
6983;SDS011;3532;51.118;7.210;2024-03-08T00:47:56;21.70;;;17.93;;
6983;SDS011;3532;51.118;7.210;2024-03-08T00:50:21;28.63;;;17.47;;
6983;SDS011;3532;51.118;7.210;2024-03-08T00:52:46;21.83;;;17.17;;
6983;SDS011;3532;51.118;7.210;2024-03-08T00:55:12;21.87;;;17.23;;
6983;SDS011;3532;51.118;7.210;2024-03-08T00:57:37;23.37;;;16.80;;
6983;SDS011;3532;51.118;7.210;2024-03-08T01:00:04;22.43;;;17.60;;
6983;SDS011;3532;51.118;7.210;2024-03-08T01:02:34;24.67;;;17.57;;
6983;SDS011;3532;51.118;7.210;2024-03-08T01:05:00;23.53;;;18.80;;
6983;SDS011;3532;51.118;7.210;2024-03-08T01:07:26;26.37;;;18.70;;
6983;SDS011;3532;51.118;7.210;2024-03-08T01:09:51;23.30;;;17.23;;
6983;SDS011;3532;51.118;7.210;2024-03-08T01:12:16;20.30;;;16.43;;
6983;SDS011;3532;51.118;7.210;2024-03-08T01:14:41;20.10;;;16.60;;
6983;SDS011;3532;51.118;7.210;2024-03-08T01:17:07;23.03;;;18.47;;
6983;SDS011;3532;51.118;7.210;2024-03-08T01:19:32;21.07;;;17.63;;
6983;SDS011;3532;51.118;7.210;2024-03-08T01:21:58;20.90;;;17.17;;
6983;SDS011;3532;51.118;7.210;2024-03-08T01:24:23;24.03;;;18.70;;
6983;SDS011;3532;51.118;7.210;2024-03-08T01:26:50;22.33;;;17.33;;
6983;SDS011;3532;51.118;7.210;2024-03-08T01:29:15;23.17;;;19.27;;
6983;SDS011;3532;51.118;7.210;2024-03-08T01:31:40;21.63;;;17.23;;
6983;SDS011;3532;51.118;7.210;2024-03-08T01:34:06;27.97;;;18.07;;
6983;SDS011;3532;51.118;7.210;2024-03-08T01:36:31;23.20;;;19.10;;
6983;SDS011;3532;51.118;7.210;2024-03-08T01:38:56;24.50;;;17.77;;
6983;SDS011;3532;51.118;7.210;2024-03-08T01:41:22;25.13;;;18.87;;
6983;SDS011;3532;51.118;7.210;2024-03-08T01:43:47;25.43;;;18.93;;
6983;SDS011;3532;51.118;7.210;2024-03-08T01:46:15;24.40;;;17.50;;
6983;SDS011;3532;51.118;7.210;2024-03-08T01:48:42;26.17;;;18.40;;
6983;SDS011;3532;51.118;7.210;2024-03-08T01:51:07;21.67;;;18.83;;
6983;SDS011;3532;51.118;7.210;2024-03-08T01:53:33;23.17;;;18.40;;
6983;SDS011;3532;51.118;7.210;2024-03-08T01:55:59;23.58;;;18.73;;
6983;SDS011;3532;51.118;7.210;2024-03-08T01:58:28;21.90;;;17.63;;
6983;SDS011;3532;51.118;7.210;2024-03-08T02:00:54;24.08;;;17.80;;
6983;SDS011;3532;51.118;7.210;2024-03-08T02:03:19;26.03;;;18.67;;
6983;SDS011;3532;51.118;7.210;2024-03-08T02:05:46;26.10;;;19.77;;
6983;SDS011;3532;51.118;7.210;2024-03-08T02:08:11;21.07;;;18.73;;
6983;SDS011;3532;51.118;7.210;2024-03-08T02:10:38;21.23;;;17.27;;
6983;SDS011;3532;51.118;7.210;2024-03-08T02:13:04;26.47;;;19.30;;
6983;SDS011;3532;51.118;7.210;2024-03-08T02:18:24;24.03;;;18.30;;
6983;SDS011;3532;51.118;7.210;2024-03-08T02:20:53;23.67;;;18.47;;
6983;SDS011;3532;51.118;7.210;2024-03-08T02:23:19;22.87;;;17.93;;
6983;SDS011;3532;51.118;7.210;2024-03-08T02:25:45;26.53;;;19.40;;
6983;SDS011;3532;51.118;7.210;2024-03-08T02:28:11;22.40;;;17.53;;
6983;SDS011;3532;51.118;7.210;2024-03-08T02:30:37;22.63;;;17.60;;
6983;SDS011;3532;51.118;7.210;2024-03-08T02:33:03;24.93;;;18.63;;
6983;SDS011;3532;51.118;7.210;2024-03-08T02:35:29;24.43;;;18.03;;
6983;SDS011;3532;51.118;7.210;2024-03-08T02:37:54;24.63;;;18.40;;
6983;SDS011;3532;51.118;7.210;2024-03-08T02:40:19;21.43;;;16.53;;
6983;SDS011;3532;51.118;7.210;2024-03-08T02:42:44;21.30;;;17.17;;
6983;SDS011;3532;51.118;7.210;2024-03-08T02:45:10;24.73;;;18.13;;
6983;SDS011;3532;51.118;7.210;2024-03-08T02:47:35;25.33;;;18.17;;
6983;SDS011;3532;51.118;7.210;2024-03-08T02:50:01;22.17;;;17.13;;
6983;SDS011;3532;51.118;7.210;2024-03-08T02:52:26;22.30;;;17.30;;
6983;SDS011;3532;51.118;7.210;2024-03-08T02:54:51;27.20;;;18.70;;
6983;SDS011;3532;51.118;7.210;2024-03-08T02:57:17;22.23;;;17.53;;
6983;SDS011;3532;51.118;7.210;2024-03-08T02:59:43;25.90;;;17.75;;
6983;SDS011;3532;51.118;7.210;2024-03-08T03:02:08;22.97;;;18.13;;
6983;SDS011;3532;51.118;7.210;2024-03-08T03:04:35;25.10;;;17.70;;
6983;SDS011;3532;51.118;7.210;2024-03-08T03:07:00;21.90;;;17.13;;
6983;SDS011;3532;51.118;7.210;2024-03-08T03:09:26;21.57;;;17.37;;
6983;SDS011;3532;51.118;7.210;2024-03-08T03:11:53;25.03;;;18.40;;
6983;SDS011;3532;51.118;7.210;2024-03-08T03:14:19;24.17;;;18.03;;
6983;SDS011;3532;51.118;7.210;2024-03-08T03:16:46;23.47;;;17.30;;
6983;SDS011;3532;51.118;7.210;2024-03-08T03:19:11;22.60;;;17.20;;
6983;SDS011;3532;51.118;7.210;2024-03-08T03:21:36;25.63;;;17.30;;
6983;SDS011;3532;51.118;7.210;2024-03-08T03:24:03;24.00;;;18.67;;
6983;SDS011;3532;51.118;7.210;2024-03-08T03:26:29;25.23;;;18.63;;
6983;SDS011;3532;51.118;7.210;2024-03-08T03:28:56;21.93;;;17.23;;
6983;SDS011;3532;51.118;7.210;2024-03-08T03:31:22;24.67;;;18.10;;
6983;SDS011;3532;51.118;7.210;2024-03-08T03:33:49;20.25;;;16.55;;
6983;SDS011;3532;51.118;7.210;2024-03-08T03:36:16;23.53;;;18.13;;
6983;SDS011;3532;51.118;7.210;2024-03-08T03:38:42;24.83;;;16.87;;
6983;SDS011;3532;51.118;7.210;2024-03-08T03:41:08;22.60;;;17.13;;
6983;SDS011;3532;51.118;7.210;2024-03-08T03:43:35;25.27;;;18.70;;
6983;SDS011;3532;51.118;7.210;2024-03-08T03:46:07;23.60;;;18.08;;
6983;SDS011;3532;51.118;7.210;2024-03-08T03:48:35;21.57;;;17.47;;
6983;SDS011;3532;51.118;7.210;2024-03-08T03:51:01;21.73;;;17.57;;
6983;SDS011;3532;51.118;7.210;2024-03-08T03:53:26;23.07;;;17.33;;
6983;SDS011;3532;51.118;7.210;2024-03-08T03:55:52;22.83;;;16.77;;
6983;SDS011;3532;51.118;7.210;2024-03-08T03:58:17;24.07;;;17.83;;
6983;SDS011;3532;51.118;7.210;2024-03-08T04:00:47;22.60;;;17.10;;
6983;SDS011;3532;51.118;7.210;2024-03-08T04:03:13;21.33;;;16.60;;
6983;SDS011;3532;51.118;7.210;2024-03-08T04:05:39;22.10;;;16.73;;
6983;SDS011;3532;51.118;7.210;2024-03-08T04:08:04;19.97;;;17.27;;
6983;SDS011;3532;51.118;7.210;2024-03-08T04:10:29;24.30;;;18.07;;
6983;SDS011;3532;51.118;7.210;2024-03-08T04:12:55;23.30;;;16.73;;
6983;SDS011;3532;51.118;7.210;2024-03-08T04:15:21;21.45;;;17.00;;
6983;SDS011;3532;51.118;7.210;2024-03-08T04:17:48;24.77;;;17.73;;
6983;SDS011;3532;51.118;7.210;2024-03-08T04:20:13;22.50;;;17.93;;
6983;SDS011;3532;51.118;7.210;2024-03-08T04:22:39;23.05;;;18.67;;
6983;SDS011;3532;51.118;7.210;2024-03-08T04:25:05;24.40;;;18.07;;
6983;SDS011;3532;51.118;7.210;2024-03-08T04:27:31;25.57;;;18.47;;
6983;SDS011;3532;51.118;7.210;2024-03-08T04:29:57;26.33;;;17.07;;
6983;SDS011;3532;51.118;7.210;2024-03-08T04:32:24;20.58;;;16.67;;
6983;SDS011;3532;51.118;7.210;2024-03-08T04:34:49;22.13;;;17.50;;
6983;SDS011;3532;51.118;7.210;2024-03-08T04:37:14;25.47;;;18.93;;
6983;SDS011;3532;51.118;7.210;2024-03-08T04:39:41;25.43;;;18.07;;
6983;SDS011;3532;51.118;7.210;2024-03-08T04:42:07;24.00;;;18.23;;
6983;SDS011;3532;51.118;7.210;2024-03-08T04:44:34;23.87;;;18.17;;
6983;SDS011;3532;51.118;7.210;2024-03-08T04:47:00;22.60;;;16.10;;
6983;SDS011;3532;51.118;7.210;2024-03-08T04:49:26;21.33;;;17.13;;
6983;SDS011;3532;51.118;7.210;2024-03-08T04:51:52;23.60;;;17.63;;
6983;SDS011;3532;51.118;7.210;2024-03-08T04:54:18;23.33;;;16.93;;
6983;SDS011;3532;51.118;7.210;2024-03-08T04:56:43;22.03;;;16.77;;
6983;SDS011;3532;51.118;7.210;2024-03-08T04:59:09;26.57;;;17.43;;
6983;SDS011;3532;51.118;7.210;2024-03-08T05:01:34;25.37;;;18.97;;
6983;SDS011;3532;51.118;7.210;2024-03-08T05:04:03;24.67;;;18.07;;
6983;SDS011;3532;51.118;7.210;2024-03-08T05:06:28;23.70;;;18.60;;
6983;SDS011;3532;51.118;7.210;2024-03-08T05:08:55;22.90;;;18.25;;
6983;SDS011;3532;51.118;7.210;2024-03-08T05:11:20;25.90;;;17.60;;
6983;SDS011;3532;51.118;7.210;2024-03-08T05:13:46;23.43;;;18.93;;
6983;SDS011;3532;51.118;7.210;2024-03-08T05:16:11;26.33;;;19.10;;
6983;SDS011;3532;51.118;7.210;2024-03-08T05:18:36;21.67;;;17.83;;
6983;SDS011;3532;51.118;7.210;2024-03-08T05:21:02;24.23;;;16.87;;
6983;SDS011;3532;51.118;7.210;2024-03-08T05:23:29;22.07;;;17.03;;
6983;SDS011;3532;51.118;7.210;2024-03-08T05:25:54;27.43;;;18.80;;
6983;SDS011;3532;51.118;7.210;2024-03-08T05:28:20;24.57;;;18.53;;
6983;SDS011;3532;51.118;7.210;2024-03-08T05:30:46;26.33;;;19.87;;
6983;SDS011;3532;51.118;7.210;2024-03-08T05:33:11;24.00;;;18.37;;
6983;SDS011;3532;51.118;7.210;2024-03-08T05:35:39;22.95;;;18.73;;
6983;SDS011;3532;51.118;7.210;2024-03-08T05:38:05;22.50;;;18.37;;
6983;SDS011;3532;51.118;7.210;2024-03-08T05:40:30;24.93;;;18.07;;
6983;SDS011;3532;51.118;7.210;2024-03-08T05:42:57;28.03;;;18.77;;
6983;SDS011;3532;51.118;7.210;2024-03-08T05:45:23;25.83;;;18.55;;
6983;SDS011;3532;51.118;7.210;2024-03-08T05:47:50;24.33;;;18.87;;
6983;SDS011;3532;51.118;7.210;2024-03-08T05:50:16;26.20;;;18.93;;
6983;SDS011;3532;51.118;7.210;2024-03-08T05:52:42;25.10;;;18.30;;
6983;SDS011;3532;51.118;7.210;2024-03-08T05:55:08;24.90;;;19.13;;
6983;SDS011;3532;51.118;7.210;2024-03-08T05:57:35;23.65;;;18.58;;
6983;SDS011;3532;51.118;7.210;2024-03-08T06:00:03;23.45;;;17.58;;
6983;SDS011;3532;51.118;7.210;2024-03-08T06:02:29;26.10;;;19.13;;
6983;SDS011;3532;51.118;7.210;2024-03-08T06:04:54;25.73;;;18.17;;
6983;SDS011;3532;51.118;7.210;2024-03-08T06:07:19;21.50;;;17.97;;
6983;SDS011;3532;51.118;7.210;2024-03-08T06:09:45;25.20;;;18.90;;
6983;SDS011;3532;51.118;7.210;2024-03-08T06:12:11;27.48;;;19.92;;
6983;SDS011;3532;51.118;7.210;2024-03-08T06:14:37;29.70;;;20.13;;
6983;SDS011;3532;51.118;7.210;2024-03-08T06:17:03;25.30;;;20.53;;
6983;SDS011;3532;51.118;7.210;2024-03-08T06:19:31;30.35;;;20.25;;
6983;SDS011;3532;51.118;7.210;2024-03-08T06:21:56;24.07;;;18.83;;
6983;SDS011;3532;51.118;7.210;2024-03-08T06:24:21;24.73;;;18.70;;
6983;SDS011;3532;51.118;7.210;2024-03-08T06:26:46;28.67;;;20.33;;
6983;SDS011;3532;51.118;7.210;2024-03-08T06:29:12;25.80;;;20.23;;
6983;SDS011;3532;51.118;7.210;2024-03-08T06:31:37;24.93;;;19.27;;
6983;SDS011;3532;51.118;7.210;2024-03-08T06:34:04;26.27;;;19.47;;
6983;SDS011;3532;51.118;7.210;2024-03-08T06:36:32;22.48;;;18.77;;
6983;SDS011;3532;51.118;7.210;2024-03-08T06:38:58;27.87;;;20.77;;
6983;SDS011;3532;51.118;7.210;2024-03-08T06:41:23;26.70;;;19.03;;
6983;SDS011;3532;51.118;7.210;2024-03-08T06:43:49;27.37;;;20.07;;
6983;SDS011;3532;51.118;7.210;2024-03-08T06:46:16;25.40;;;20.03;;
6983;SDS011;3532;51.118;7.210;2024-03-08T06:48:42;26.60;;;20.17;;
6983;SDS011;3532;51.118;7.210;2024-03-08T06:51:08;28.60;;;20.70;;
6983;SDS011;3532;51.118;7.210;2024-03-08T06:53:33;27.47;;;21.17;;
6983;SDS011;3532;51.118;7.210;2024-03-08T06:56:02;28.73;;;19.90;;
6983;SDS011;3532;51.118;7.210;2024-03-08T06:58:27;26.30;;;20.17;;
6983;SDS011;3532;51.118;7.210;2024-03-08T07:00:53;24.73;;;20.77;;
6983;SDS011;3532;51.118;7.210;2024-03-08T07:03:19;28.67;;;20.13;;
6983;SDS011;3532;51.118;7.210;2024-03-08T07:05:44;28.83;;;19.53;;
6983;SDS011;3532;51.118;7.210;2024-03-08T07:08:10;23.63;;;18.27;;
6983;SDS011;3532;51.118;7.210;2024-03-08T07:10:37;30.00;;;21.00;;
6983;SDS011;3532;51.118;7.210;2024-03-08T07:13:02;24.17;;;19.20;;
6983;SDS011;3532;51.118;7.210;2024-03-08T07:15:27;25.80;;;19.90;;
6983;SDS011;3532;51.118;7.210;2024-03-08T07:17:53;23.93;;;19.03;;
6983;SDS011;3532;51.118;7.210;2024-03-08T07:20:19;26.50;;;18.00;;
6983;SDS011;3532;51.118;7.210;2024-03-08T07:22:47;24.80;;;19.10;;
6983;SDS011;3532;51.118;7.210;2024-03-08T07:25:14;24.83;;;18.33;;
6983;SDS011;3532;51.118;7.210;2024-03-08T07:27:49;25.30;;;18.70;;
6983;SDS011;3532;51.118;7.210;2024-03-08T07:30:16;25.37;;;19.77;;
6983;SDS011;3532;51.118;7.210;2024-03-08T07:33:00;23.13;;;19.13;;
6983;SDS011;3532;51.118;7.210;2024-03-08T07:35:27;24.93;;;18.03;;
6983;SDS011;3532;51.118;7.210;2024-03-08T07:37:53;26.73;;;18.30;;
6983;SDS011;3532;51.118;7.210;2024-03-08T07:40:20;25.73;;;18.70;;
6983;SDS011;3532;51.118;7.210;2024-03-08T07:42:45;21.27;;;18.63;;
6983;SDS011;3532;51.118;7.210;2024-03-08T07:45:11;22.57;;;17.93;;
6983;SDS011;3532;51.118;7.210;2024-03-08T07:47:37;22.03;;;18.03;;
6983;SDS011;3532;51.118;7.210;2024-03-08T07:50:03;23.23;;;18.07;;
6983;SDS011;3532;51.118;7.210;2024-03-08T07:52:28;23.57;;;17.50;;
6983;SDS011;3532;51.118;7.210;2024-03-08T07:54:54;26.10;;;18.13;;
6983;SDS011;3532;51.118;7.210;2024-03-08T07:57:19;24.47;;;18.70;;
6983;SDS011;3532;51.118;7.210;2024-03-08T07:59:45;26.27;;;17.53;;
6983;SDS011;3532;51.118;7.210;2024-03-08T08:02:10;20.37;;;17.30;;
6983;SDS011;3532;51.118;7.210;2024-03-08T08:04:35;21.80;;;17.03;;
6983;SDS011;3532;51.118;7.210;2024-03-08T08:07:01;25.10;;;18.83;;
6983;SDS011;3532;51.118;7.210;2024-03-08T08:09:26;21.23;;;16.83;;
6983;SDS011;3532;51.118;7.210;2024-03-08T08:11:59;22.83;;;18.43;;
6983;SDS011;3532;51.118;7.210;2024-03-08T08:14:26;25.07;;;16.93;;
6983;SDS011;3532;51.118;7.210;2024-03-08T08:16:51;21.37;;;16.37;;
6983;SDS011;3532;51.118;7.210;2024-03-08T08:19:17;23.50;;;18.03;;
6983;SDS011;3532;51.118;7.210;2024-03-08T08:21:43;24.33;;;18.50;;
6983;SDS011;3532;51.118;7.210;2024-03-08T08:24:09;23.73;;;18.43;;
6983;SDS011;3532;51.118;7.210;2024-03-08T08:26:35;24.40;;;16.40;;
6983;SDS011;3532;51.118;7.210;2024-03-08T08:29:01;22.10;;;17.67;;
6983;SDS011;3532;51.118;7.210;2024-03-08T08:31:26;19.87;;;16.67;;
6983;SDS011;3532;51.118;7.210;2024-03-08T08:33:52;21.93;;;17.37;;
6983;SDS011;3532;51.118;7.210;2024-03-08T08:36:23;21.83;;;17.83;;
6983;SDS011;3532;51.118;7.210;2024-03-08T08:38:49;21.43;;;16.73;;
6983;SDS011;3532;51.118;7.210;2024-03-08T08:41:15;22.27;;;17.37;;
6983;SDS011;3532;51.118;7.210;2024-03-08T08:43:42;19.77;;;17.20;;
6983;SDS011;3532;51.118;7.210;2024-03-08T08:46:09;20.53;;;15.90;;
6983;SDS011;3532;51.118;7.210;2024-03-08T08:48:37;21.07;;;15.77;;
6983;SDS011;3532;51.118;7.210;2024-03-08T08:51:02;21.77;;;15.77;;
6983;SDS011;3532;51.118;7.210;2024-03-08T08:53:28;20.33;;;15.70;;
6983;SDS011;3532;51.118;7.210;2024-03-08T08:55:54;25.60;;;17.20;;
6983;SDS011;3532;51.118;7.210;2024-03-08T08:58:19;19.20;;;15.23;;
6983;SDS011;3532;51.118;7.210;2024-03-08T09:00:44;21.17;;;17.83;;
6983;SDS011;3532;51.118;7.210;2024-03-08T09:03:10;18.83;;;15.70;;
6983;SDS011;3532;51.118;7.210;2024-03-08T09:05:37;22.80;;;17.60;;
6983;SDS011;3532;51.118;7.210;2024-03-08T09:08:02;17.07;;;15.27;;
6983;SDS011;3532;51.118;7.210;2024-03-08T09:10:28;19.00;;;15.87;;
6983;SDS011;3532;51.118;7.210;2024-03-08T09:12:53;20.67;;;16.90;;
6983;SDS011;3532;51.118;7.210;2024-03-08T09:15:19;20.67;;;16.40;;
6983;SDS011;3532;51.118;7.210;2024-03-08T09:17:45;21.90;;;16.53;;
6983;SDS011;3532;51.118;7.210;2024-03-08T09:20:11;18.10;;;15.17;;
6983;SDS011;3532;51.118;7.210;2024-03-08T09:22:39;20.30;;;16.20;;
6983;SDS011;3532;51.118;7.210;2024-03-08T09:25:05;20.87;;;15.63;;
6983;SDS011;3532;51.118;7.210;2024-03-08T09:27:32;17.50;;;15.13;;
6983;SDS011;3532;51.118;7.210;2024-03-08T09:29:58;20.17;;;16.07;;
6983;SDS011;3532;51.118;7.210;2024-03-08T09:32:23;19.33;;;15.63;;
6983;SDS011;3532;51.118;7.210;2024-03-08T09:34:49;16.70;;;14.73;;
6983;SDS011;3532;51.118;7.210;2024-03-08T09:37:15;17.20;;;14.30;;
6983;SDS011;3532;51.118;7.210;2024-03-08T09:39:40;17.23;;;14.43;;
6983;SDS011;3532;51.118;7.210;2024-03-08T09:42:06;16.23;;;14.20;;
6983;SDS011;3532;51.118;7.210;2024-03-08T09:44:31;15.97;;;14.13;;
6983;SDS011;3532;51.118;7.210;2024-03-08T09:46:57;19.33;;;14.90;;
6983;SDS011;3532;51.118;7.210;2024-03-08T09:49:23;17.30;;;14.23;;
6983;SDS011;3532;51.118;7.210;2024-03-08T09:51:48;18.37;;;14.20;;
6983;SDS011;3532;51.118;7.210;2024-03-08T09:54:16;15.17;;;13.50;;
6983;SDS011;3532;51.118;7.210;2024-03-08T09:56:41;17.97;;;13.67;;
6983;SDS011;3532;51.118;7.210;2024-03-08T09:59:09;18.00;;;14.43;;
6983;SDS011;3532;51.118;7.210;2024-03-08T10:01:52;15.20;;;12.70;;
6983;SDS011;3532;51.118;7.210;2024-03-08T10:04:21;15.27;;;13.17;;
6983;SDS011;3532;51.118;7.210;2024-03-08T10:06:47;20.43;;;15.10;;
6983;SDS011;3532;51.118;7.210;2024-03-08T10:09:12;17.70;;;14.30;;
6983;SDS011;3532;51.118;7.210;2024-03-08T10:11:39;17.20;;;13.83;;
6983;SDS011;3532;51.118;7.210;2024-03-08T10:14:05;14.67;;;12.43;;
6983;SDS011;3532;51.118;7.210;2024-03-08T10:16:31;14.13;;;12.70;;
6983;SDS011;3532;51.118;7.210;2024-03-08T10:18:56;13.77;;;11.57;;
6983;SDS011;3532;51.118;7.210;2024-03-08T10:21:22;17.30;;;12.73;;
6983;SDS011;3532;51.118;7.210;2024-03-08T10:23:47;13.63;;;11.27;;
6983;SDS011;3532;51.118;7.210;2024-03-08T10:26:13;13.90;;;12.03;;
6983;SDS011;3532;51.118;7.210;2024-03-08T10:28:45;14.87;;;12.37;;
6983;SDS011;3532;51.118;7.210;2024-03-08T10:31:10;12.73;;;11.30;;
6983;SDS011;3532;51.118;7.210;2024-03-08T10:33:36;14.10;;;12.70;;
6983;SDS011;3532;51.118;7.210;2024-03-08T10:36:03;15.60;;;13.13;;
6983;SDS011;3532;51.118;7.210;2024-03-08T10:38:30;14.17;;;11.97;;
6983;SDS011;3532;51.118;7.210;2024-03-08T10:40:57;17.33;;;14.27;;
6983;SDS011;3532;51.118;7.210;2024-03-08T10:43:23;13.60;;;10.73;;
6983;SDS011;3532;51.118;7.210;2024-03-08T10:45:50;14.63;;;11.90;;
6983;SDS011;3532;51.118;7.210;2024-03-08T10:48:28;13.10;;;11.53;;
6983;SDS011;3532;51.118;7.210;2024-03-08T10:50:56;13.83;;;11.90;;
6983;SDS011;3532;51.118;7.210;2024-03-08T10:53:26;12.93;;;11.47;;
6983;SDS011;3532;51.118;7.210;2024-03-08T10:55:52;14.53;;;11.40;;
6983;SDS011;3532;51.118;7.210;2024-03-08T10:58:19;11.07;;;9.87;;
6983;SDS011;3532;51.118;7.210;2024-03-08T11:00:45;11.97;;;10.70;;
6983;SDS011;3532;51.118;7.210;2024-03-08T11:06:13;11.67;;;10.13;;
6983;SDS011;3532;51.118;7.210;2024-03-08T11:08:47;11.37;;;9.77;;
6983;SDS011;3532;51.118;7.210;2024-03-08T11:11:28;11.33;;;10.23;;
6983;SDS011;3532;51.118;7.210;2024-03-08T11:13:57;13.37;;;11.03;;
6983;SDS011;3532;51.118;7.210;2024-03-08T11:18:55;11.40;;;10.23;;
6983;SDS011;3532;51.118;7.210;2024-03-08T11:21:25;11.17;;;9.90;;
6983;SDS011;3532;51.118;7.210;2024-03-08T11:26:32;11.57;;;10.37;;
6983;SDS011;3532;51.118;7.210;2024-03-08T11:32:03;11.03;;;9.77;;
6983;SDS011;3532;51.118;7.210;2024-03-08T11:34:30;12.97;;;11.17;;
6983;SDS011;3532;51.118;7.210;2024-03-08T11:36:58;11.90;;;10.53;;
6983;SDS011;3532;51.118;7.210;2024-03-08T11:39:23;11.37;;;9.40;;
6983;SDS011;3532;51.118;7.210;2024-03-08T11:41:49;11.87;;;9.93;;
6983;SDS011;3532;51.118;7.210;2024-03-08T11:44:14;12.73;;;10.63;;
6983;SDS011;3532;51.118;7.210;2024-03-08T11:46:41;11.80;;;9.50;;
6983;SDS011;3532;51.118;7.210;2024-03-08T11:49:11;11.60;;;9.30;;
6983;SDS011;3532;51.118;7.210;2024-03-08T11:51:37;11.70;;;10.07;;
6983;SDS011;3532;51.118;7.210;2024-03-08T11:54:02;10.63;;;9.27;;
6983;SDS011;3532;51.118;7.210;2024-03-08T11:56:28;12.43;;;9.73;;
6983;SDS011;3532;51.118;7.210;2024-03-08T11:58:54;10.13;;;9.10;;
6983;SDS011;3532;51.118;7.210;2024-03-08T12:01:24;13.50;;;9.60;;
6983;SDS011;3532;51.118;7.210;2024-03-08T12:03:53;10.53;;;9.50;;
6983;SDS011;3532;51.118;7.210;2024-03-08T12:06:19;11.70;;;9.20;;
6983;SDS011;3532;51.118;7.210;2024-03-08T12:08:45;10.67;;;8.97;;
6983;SDS011;3532;51.118;7.210;2024-03-08T12:11:14;10.03;;;8.47;;
6983;SDS011;3532;51.118;7.210;2024-03-08T12:13:39;9.80;;;8.80;;
6983;SDS011;3532;51.118;7.210;2024-03-08T12:16:06;11.43;;;8.80;;
6983;SDS011;3532;51.118;7.210;2024-03-08T12:18:33;10.43;;;8.77;;
6983;SDS011;3532;51.118;7.210;2024-03-08T12:21:11;10.57;;;8.97;;
6983;SDS011;3532;51.118;7.210;2024-03-08T12:23:38;9.57;;;8.63;;
6983;SDS011;3532;51.118;7.210;2024-03-08T12:28:40;13.17;;;8.53;;
6983;SDS011;3532;51.118;7.210;2024-03-08T12:31:07;9.50;;;8.50;;
6983;SDS011;3532;51.118;7.210;2024-03-08T12:33:36;9.83;;;8.83;;
6983;SDS011;3532;51.118;7.210;2024-03-08T12:36:14;10.47;;;9.00;;
6983;SDS011;3532;51.118;7.210;2024-03-08T12:38:43;11.03;;;8.90;;
6983;SDS011;3532;51.118;7.210;2024-03-08T12:41:09;11.30;;;9.07;;
6983;SDS011;3532;51.118;7.210;2024-03-08T12:43:34;10.63;;;8.67;;
6983;SDS011;3532;51.118;7.210;2024-03-08T12:45:59;10.43;;;9.43;;
6983;SDS011;3532;51.118;7.210;2024-03-08T12:48:25;10.97;;;8.70;;
6983;SDS011;3532;51.118;7.210;2024-03-08T12:50:50;9.07;;;8.17;;
6983;SDS011;3532;51.118;7.210;2024-03-08T12:53:17;10.87;;;9.03;;
6983;SDS011;3532;51.118;7.210;2024-03-08T12:55:42;9.57;;;8.30;;
6983;SDS011;3532;51.118;7.210;2024-03-08T12:58:08;12.13;;;9.20;;
6983;SDS011;3532;51.118;7.210;2024-03-08T13:00:34;9.87;;;8.87;;
6983;SDS011;3532;51.118;7.210;2024-03-08T13:03:01;11.10;;;9.67;;
6983;SDS011;3532;51.118;7.210;2024-03-08T13:05:27;12.70;;;9.73;;
6983;SDS011;3532;51.118;7.210;2024-03-08T13:07:53;10.30;;;9.20;;
6983;SDS011;3532;51.118;7.210;2024-03-08T13:10:19;10.40;;;9.40;;
6983;SDS011;3532;51.118;7.210;2024-03-08T13:12:45;10.73;;;9.30;;
6983;SDS011;3532;51.118;7.210;2024-03-08T13:15:10;9.70;;;8.70;;
6983;SDS011;3532;51.118;7.210;2024-03-08T13:17:40;12.10;;;9.47;;
6983;SDS011;3532;51.118;7.210;2024-03-08T13:20:07;11.60;;;9.17;;
6983;SDS011;3532;51.118;7.210;2024-03-08T13:22:34;12.17;;;9.40;;
6983;SDS011;3532;51.118;7.210;2024-03-08T13:24:59;11.23;;;10.03;;
6983;SDS011;3532;51.118;7.210;2024-03-08T13:27:26;10.83;;;9.10;;
6983;SDS011;3532;51.118;7.210;2024-03-08T13:29:54;11.00;;;9.20;;
6983;SDS011;3532;51.118;7.210;2024-03-08T13:32:20;11.23;;;9.70;;
6983;SDS011;3532;51.118;7.210;2024-03-08T13:34:49;12.47;;;10.37;;
6983;SDS011;3532;51.118;7.210;2024-03-08T13:37:15;14.00;;;10.73;;
6983;SDS011;3532;51.118;7.210;2024-03-08T13:39:41;12.07;;;10.57;;
6983;SDS011;3532;51.118;7.210;2024-03-08T13:42:09;12.40;;;10.13;;
6983;SDS011;3532;51.118;7.210;2024-03-08T13:44:47;11.67;;;10.47;;
6983;SDS011;3532;51.118;7.210;2024-03-08T13:47:16;13.10;;;11.10;;
6983;SDS011;3532;51.118;7.210;2024-03-08T13:49:42;11.33;;;10.13;;
6983;SDS011;3532;51.118;7.210;2024-03-08T13:52:08;12.17;;;10.77;;
6983;SDS011;3532;51.118;7.210;2024-03-08T13:54:34;13.97;;;11.30;;
6983;SDS011;3532;51.118;7.210;2024-03-08T13:57:00;12.10;;;10.87;;
6983;SDS011;3532;51.118;7.210;2024-03-08T13:59:28;12.80;;;10.47;;
6983;SDS011;3532;51.118;7.210;2024-03-08T14:01:55;12.13;;;10.93;;
6983;SDS011;3532;51.118;7.210;2024-03-08T14:04:21;13.80;;;10.73;;
6983;SDS011;3532;51.118;7.210;2024-03-08T14:06:46;14.37;;;10.87;;
6983;SDS011;3532;51.118;7.210;2024-03-08T14:09:12;12.20;;;10.67;;
6983;SDS011;3532;51.118;7.210;2024-03-08T14:11:45;13.17;;;10.93;;
6983;SDS011;3532;51.118;7.210;2024-03-08T14:14:11;13.00;;;11.63;;
6983;SDS011;3532;51.118;7.210;2024-03-08T14:16:40;18.13;;;13.00;;
6983;SDS011;3532;51.118;7.210;2024-03-08T14:19:05;15.73;;;11.57;;
6983;SDS011;3532;51.118;7.210;2024-03-08T14:21:33;17.57;;;11.83;;
6983;SDS011;3532;51.118;7.210;2024-03-08T14:23:58;19.13;;;11.93;;
6983;SDS011;3532;51.118;7.210;2024-03-08T14:26:24;16.73;;;12.77;;
6983;SDS011;3532;51.118;7.210;2024-03-08T14:28:49;12.93;;;11.57;;
6983;SDS011;3532;51.118;7.210;2024-03-08T14:31:19;14.27;;;12.77;;
6983;SDS011;3532;51.118;7.210;2024-03-08T14:33:50;14.70;;;12.70;;
6983;SDS011;3532;51.118;7.210;2024-03-08T14:36:16;13.77;;;12.37;;
6983;SDS011;3532;51.118;7.210;2024-03-08T14:38:48;14.47;;;12.30;;
6983;SDS011;3532;51.118;7.210;2024-03-08T14:41:14;15.13;;;12.23;;
6983;SDS011;3532;51.118;7.210;2024-03-08T14:43:42;13.73;;;11.93;;
6983;SDS011;3532;51.118;7.210;2024-03-08T14:46:09;15.33;;;12.23;;
6983;SDS011;3532;51.118;7.210;2024-03-08T14:48:39;14.53;;;12.40;;
6983;SDS011;3532;51.118;7.210;2024-03-08T14:51:06;13.60;;;11.23;;
6983;SDS011;3532;51.118;7.210;2024-03-08T14:53:35;14.13;;;12.13;;
6983;SDS011;3532;51.118;7.210;2024-03-08T14:56:00;13.57;;;12.10;;
6983;SDS011;3532;51.118;7.210;2024-03-08T14:58:25;15.00;;;12.77;;
6983;SDS011;3532;51.118;7.210;2024-03-08T15:00:52;13.60;;;11.80;;
6983;SDS011;3532;51.118;7.210;2024-03-08T15:03:20;14.77;;;11.53;;